createdAt,value
2019-04-29T00:01:55.344Z,2.00
2019-04-29T00:04:29.305Z,1.95
2019-04-29T00:07:02.875Z,1.80
2019-04-29T00:09:35.683Z,1.72
2019-04-29T00:12:08.913Z,1.80
2019-04-29T00:14:43.226Z,1.75
2019-04-29T00:17:25.723Z,1.75
2019-04-29T00:20:34.996Z,1.67
2019-04-29T00:23:08.167Z,1.65
2019-04-29T00:25:41.162Z,1.67
2019-04-29T00:28:14.760Z,1.57
2019-04-29T00:30:48.360Z,1.77
2019-04-29T00:33:21.448Z,1.60
2019-04-29T00:35:55.047Z,1.60
2019-04-29T00:38:42.574Z,1.57
2019-04-29T00:41:27.279Z,1.50
2019-04-29T00:44:08.928Z,1.70
2019-04-29T00:46:45.194Z,1.57
2019-04-29T00:49:18.991Z,1.57
2019-04-29T00:51:52.349Z,1.47
2019-04-29T00:54:37.814Z,1.60
2019-04-29T00:57:10.539Z,1.35
2019-04-29T00:59:43.524Z,1.47
2019-04-29T01:02:16.215Z,1.35
2019-04-29T01:04:48.726Z,1.22
2019-04-29T01:07:21.503Z,1.22
2019-04-29T01:09:54.242Z,1.50
2019-04-29T01:12:26.906Z,1.30
2019-04-29T01:14:59.821Z,1.40
2019-04-29T01:17:32.952Z,1.77
2019-04-29T01:20:06.933Z,2.52
2019-04-29T01:22:39.793Z,3.52
2019-04-29T01:25:12.533Z,3.17
2019-04-29T01:27:54.567Z,2.50
2019-04-29T01:31:02.974Z,2.37
2019-04-29T01:33:35.967Z,1.87
2019-04-29T01:36:27.829Z,1.60
2019-04-29T01:39:03.343Z,1.85
2019-04-29T01:41:42.780Z,1.57
2019-04-29T01:44:16.389Z,2.10
2019-04-29T01:46:49.583Z,1.95
2019-04-29T01:49:22.769Z,2.33
2019-04-29T01:51:55.369Z,1.90
2019-04-29T01:54:27.928Z,1.90
2019-04-29T01:57:00.488Z,1.85
2019-04-29T01:59:33.529Z,1.90
2019-04-29T02:02:08.345Z,1.85
2019-04-29T02:04:42.578Z,1.87
2019-04-29T02:07:15.195Z,1.90
2019-04-29T02:10:04.870Z,1.95
2019-04-29T02:12:37.484Z,1.60
2019-04-29T02:15:10.621Z,2.10
2019-04-29T02:17:43.512Z,1.87
2019-04-29T02:20:16.720Z,1.90
2019-04-29T02:23:13.929Z,1.70
2019-04-29T02:25:47.286Z,2.20
2019-04-29T02:28:24.118Z,2.40
2019-04-29T02:30:59.471Z,2.00
2019-04-29T02:33:32.437Z,2.10
2019-04-29T02:36:05.613Z,2.05
2019-04-29T02:38:46.875Z,2.40
2019-04-29T02:41:34.553Z,2.30
2019-04-29T02:44:08.750Z,2.00
2019-04-29T02:46:41.355Z,2.00
2019-04-29T02:49:13.933Z,1.97
2019-04-29T02:51:52.716Z,1.87
2019-04-29T02:54:26.591Z,1.90
2019-04-29T02:57:17.883Z,1.90
2019-04-29T02:59:53.146Z,1.57
2019-04-29T03:02:44.577Z,1.67
2019-04-29T03:05:23.978Z,1.93
2019-04-29T03:07:56.663Z,2.20
2019-04-29T03:10:29.131Z,1.83
2019-04-29T03:13:02.027Z,1.70
2019-04-29T03:15:35.867Z,1.60
2019-04-29T03:18:09.415Z,1.55
2019-04-29T03:20:55.941Z,1.90
2019-04-29T03:23:28.699Z,1.40
2019-04-29T03:26:04.422Z,1.87
2019-04-29T03:28:37.241Z,2.47
2019-04-29T03:31:10.024Z,2.17
2019-04-29T03:33:42.531Z,2.30
2019-04-29T03:36:15.246Z,1.98
2019-04-29T03:38:48.124Z,1.80
2019-04-29T03:41:20.913Z,1.57
2019-04-29T03:43:53.694Z,1.72
2019-04-29T03:46:26.599Z,1.60
2019-04-29T03:48:59.439Z,1.67
2019-04-29T03:51:32.160Z,1.80
2019-04-29T03:54:04.737Z,1.70
2019-04-29T03:56:37.409Z,1.57
2019-04-29T03:59:09.963Z,1.70
2019-04-29T04:02:07.472Z,1.57
2019-04-29T04:04:57.240Z,1.60
2019-04-29T04:07:54.259Z,1.60
2019-04-29T04:10:26.827Z,1.30
2019-04-29T04:12:59.406Z,1.70
2019-04-29T04:15:32.100Z,1.67
2019-04-29T04:18:17.196Z,1.50
2019-04-29T04:20:50.721Z,1.40
2019-04-29T04:23:24.371Z,1.60
2019-04-29T04:25:58.197Z,1.47
2019-04-29T04:28:31.588Z,1.60
2019-04-29T04:31:06.954Z,1.80
2019-04-29T04:33:40.639Z,1.35
2019-04-29T04:36:13.570Z,1.70
2019-04-29T04:38:46.706Z,1.30
2019-04-29T04:41:19.414Z,1.60
2019-04-29T04:43:52.324Z,1.45
2019-04-29T04:46:25.074Z,1.77
2019-04-29T04:48:57.942Z,1.50
2019-04-29T04:51:30.650Z,1.45
2019-04-29T04:54:04.059Z,1.45
2019-04-29T04:56:37.067Z,1.60
2019-04-29T04:59:09.830Z,1.45
2019-04-29T05:01:42.441Z,1.42
2019-04-29T05:04:15.177Z,1.42
2019-04-29T05:06:47.651Z,1.55
2019-04-29T05:09:20.399Z,1.72
2019-04-29T05:11:52.819Z,1.57
2019-04-29T05:14:25.814Z,1.52
2019-04-29T05:16:58.322Z,1.47
2019-04-29T05:19:30.937Z,1.42
2019-04-29T05:22:03.528Z,1.75
2019-04-29T05:24:36.045Z,1.50
2019-04-29T05:27:08.646Z,1.60
2019-04-29T05:29:41.514Z,1.80
2019-04-29T05:32:14.188Z,1.67
2019-04-29T05:34:49.048Z,1.62
2019-04-29T05:37:45.874Z,1.80
2019-04-29T05:40:37.074Z,2.00
2019-04-29T05:43:11.482Z,2.02
2019-04-29T05:46:00.385Z,1.95
2019-04-29T05:48:33.271Z,1.92
2019-04-29T05:51:27.208Z,1.92
2019-04-29T05:53:58.577Z,2.35
2019-04-29T05:56:31.489Z,2.10
2019-04-29T05:59:03.975Z,2.15
2019-04-29T06:01:36.945Z,2.20
2019-04-29T06:04:11.575Z,2.00
2019-04-29T06:06:44.987Z,2.15
2019-04-29T06:09:18.402Z,2.30
2019-04-29T06:11:51.678Z,2.47
2019-04-29T06:14:24.256Z,2.20
2019-04-29T06:17:02.208Z,2.42
2019-04-29T06:19:35.167Z,2.20
2019-04-29T06:22:05.893Z,2.40
2019-04-29T06:24:41.110Z,2.60
2019-04-29T06:27:13.058Z,2.30
2019-04-29T06:29:45.556Z,2.72
2019-04-29T06:32:20.189Z,2.62
2019-04-29T06:34:52.593Z,2.37
2019-04-29T06:37:25.318Z,2.60
2019-04-29T06:39:58.036Z,2.75
2019-04-29T06:42:33.313Z,2.37
2019-04-29T06:45:05.157Z,2.52
2019-04-29T06:47:37.881Z,2.60
2019-04-29T06:50:11.492Z,2.67
2019-04-29T06:52:44.132Z,2.58
2019-04-29T06:55:16.828Z,2.45
2019-04-29T06:57:49.511Z,2.47
2019-04-29T07:00:23.932Z,2.45
2019-04-29T07:02:56.557Z,2.40
2019-04-29T07:05:29.064Z,2.40
2019-04-29T07:08:01.818Z,2.17
2019-04-29T07:10:34.246Z,2.10
2019-04-29T07:13:07.010Z,1.95
2019-04-29T07:15:39.493Z,2.27
2019-04-29T07:18:12.343Z,1.98
2019-04-29T07:20:45.586Z,1.87
2019-04-29T07:23:18.717Z,1.67
2019-04-29T07:25:51.661Z,1.42
2019-04-29T07:28:24.548Z,1.60
2019-04-29T07:31:02.671Z,1.80
2019-04-29T07:33:32.588Z,1.50
2019-04-29T07:36:11.119Z,1.52
2019-04-29T07:38:41.866Z,1.60
2019-04-29T07:41:18.944Z,1.70
2019-04-29T07:43:49.771Z,1.25
2019-04-29T07:46:56.087Z,2.20
2019-04-29T07:49:17.329Z,1.60
2019-04-29T07:51:50.039Z,1.67
2019-04-29T07:54:23.219Z,1.30
2019-04-29T07:56:56.205Z,1.07
2019-04-29T07:59:33.820Z,1.55
2019-04-29T08:02:04.546Z,1.50
2019-04-29T08:04:40.381Z,1.40
2019-04-29T08:07:13.789Z,1.35
2019-04-29T08:09:46.869Z,0.88
2019-04-29T08:12:21.304Z,0.82
2019-04-29T08:14:58.592Z,1.10
2019-04-29T08:17:30.231Z,0.82
2019-04-29T08:20:05.312Z,1.35
2019-04-29T08:22:37.417Z,1.40
2019-04-29T08:25:12.173Z,1.20
2019-04-29T08:27:44.963Z,1.45
2019-04-29T08:30:19.002Z,1.20
2019-04-29T08:32:51.857Z,0.95
2019-04-29T08:35:24.512Z,1.20
2019-04-29T08:37:57.033Z,0.88
2019-04-29T08:40:29.403Z,1.07
2019-04-29T08:43:15.882Z,1.15
2019-04-29T08:46:01.271Z,0.93
2019-04-29T08:48:33.767Z,1.10
2019-04-29T08:51:08.834Z,1.90
2019-04-29T08:53:41.481Z,1.80
2019-04-29T08:56:14.101Z,2.12
2019-04-29T08:58:49.389Z,1.98
2019-04-29T09:01:20.745Z,1.70
2019-04-29T09:03:58.041Z,1.80
2019-04-29T09:06:32.538Z,1.67
2019-04-29T09:09:10.487Z,1.67
2019-04-29T09:11:43.562Z,1.55
2019-04-29T09:14:14.995Z,1.70
2019-04-29T09:16:47.599Z,2.12
2019-04-29T09:19:20.244Z,2.00
2019-04-29T09:21:56.605Z,2.10
2019-04-29T09:24:29.153Z,1.80
2019-04-29T09:27:15.334Z,1.60
2019-04-29T09:29:47.832Z,2.67
2019-04-29T09:32:20.349Z,2.40
2019-04-29T09:34:55.443Z,2.45
2019-04-29T09:37:27.949Z,2.12
2019-04-29T09:40:00.965Z,2.40
2019-04-29T09:42:57.008Z,2.00
2019-04-29T09:45:38.628Z,1.77
2019-04-29T09:48:41.507Z,2.10
2019-04-29T09:51:17.870Z,1.90
2019-04-29T09:53:48.864Z,2.12
2019-04-29T09:56:21.836Z,2.02
2019-04-29T09:59:13.130Z,1.95
2019-04-29T10:02:10.084Z,1.65
2019-04-29T10:05:00.340Z,1.70
2019-04-29T10:07:33.273Z,1.70
2019-04-29T10:10:07.863Z,2.85
2019-04-29T10:12:40.662Z,2.35
2019-04-29T10:15:14.729Z,2.47
2019-04-29T10:18:02.112Z,1.98
2019-04-29T10:20:55.807Z,1.87
2019-04-29T10:23:28.809Z,1.75
2019-04-29T10:26:02.440Z,1.72
2019-04-29T10:28:36.413Z,1.40
2019-04-29T10:31:09.694Z,1.82
2019-04-29T10:33:42.343Z,1.75
2019-04-29T10:36:16.093Z,1.37
2019-04-29T10:38:50.227Z,1.22
2019-04-29T10:41:30.998Z,1.60
2019-04-29T10:44:25.163Z,1.70
2019-04-29T10:47:07.942Z,1.37
2019-04-29T10:49:54.846Z,1.60
2019-04-29T10:52:27.384Z,1.60
2019-04-29T10:55:00.032Z,1.60
2019-04-29T10:57:32.795Z,1.02
2019-04-29T11:00:16.997Z,1.55
2019-04-29T11:02:51.159Z,1.42
2019-04-29T11:05:59.897Z,1.70
2019-04-29T11:08:44.528Z,1.22
2019-04-29T11:11:23.447Z,1.47
2019-04-29T11:13:51.842Z,1.27
2019-04-29T11:16:27.575Z,1.27
2019-04-29T11:19:00.321Z,1.50
2019-04-29T11:21:34.268Z,1.32
2019-04-29T11:24:19.702Z,1.07
2019-04-29T11:27:11.165Z,0.80
2019-04-29T11:29:35.548Z,1.27
2019-04-29T11:32:11.264Z,1.20
2019-04-29T11:34:57.374Z,1.10
2019-04-29T11:37:30.268Z,1.42
2019-04-29T11:40:03.050Z,1.35
2019-04-29T11:42:36.801Z,1.20
2019-04-29T11:45:13.468Z,1.20
2019-04-29T11:47:44.698Z,1.00
2019-04-29T11:50:27.044Z,0.90
2019-04-29T11:53:00.092Z,0.80
2019-04-29T11:55:32.642Z,1.20
2019-04-29T11:58:11.379Z,1.05
2019-04-29T12:01:10.057Z,1.12
2019-04-29T12:03:46.673Z,1.30
2019-04-29T12:06:20.905Z,1.20
2019-04-29T12:08:58.601Z,1.07
2019-04-29T12:11:35.781Z,1.02
2019-04-29T12:14:15.712Z,1.30
2019-04-29T12:16:57.356Z,1.20
2019-04-29T12:19:32.843Z,1.02
2019-04-29T12:22:09.105Z,1.17
2019-04-29T12:24:40.525Z,1.60
2019-04-29T12:27:14.913Z,1.70
2019-04-29T12:29:48.858Z,1.70
2019-04-29T12:32:39.871Z,1.67
2019-04-29T12:35:33.823Z,1.82
2019-04-29T12:38:24.958Z,1.70
2019-04-29T12:41:19.684Z,1.98
2019-04-29T12:43:54.190Z,1.60
2019-04-29T12:46:30.892Z,1.67
2019-04-29T12:49:07.847Z,1.20
2019-04-29T12:51:37.675Z,1.52
2019-04-29T12:54:10.314Z,1.70
2019-04-29T12:56:47.942Z,1.65
2019-04-29T12:59:17.542Z,2.20
2019-04-29T13:01:58.851Z,1.82
2019-04-29T13:05:02.820Z,1.40
2019-04-29T13:07:57.528Z,1.70
2019-04-29T13:10:58.143Z,1.50
2019-04-29T13:13:31.090Z,1.17
2019-04-29T13:16:20.584Z,1.50
2019-04-29T13:19:11.856Z,1.47
2019-04-29T13:21:42.602Z,2.17
2019-04-29T13:24:24.093Z,1.98
2019-04-29T13:26:50.005Z,1.80
2019-04-29T13:29:27.127Z,1.50
2019-04-29T13:31:56.637Z,1.30
2019-04-29T13:34:33.938Z,1.52
2019-04-29T13:37:18.137Z,1.80
2019-04-29T13:39:41.119Z,2.60
2019-04-29T13:42:15.811Z,2.08
2019-04-29T13:45:05.464Z,2.40
2019-04-29T13:47:39.823Z,1.90
2019-04-29T13:50:39.525Z,1.90
2019-04-29T13:53:06.253Z,1.40
2019-04-29T13:55:49.557Z,2.00
2019-04-29T13:58:13.459Z,1.70
2019-04-29T14:01:22.170Z,2.10
2019-04-29T14:03:50.303Z,1.30
2019-04-29T14:06:25.822Z,1.87
2019-04-29T14:08:59.934Z,1.60
2019-04-29T14:11:33.977Z,1.72
2019-04-29T14:14:06.657Z,1.60
2019-04-29T14:16:43.049Z,1.70
2019-04-29T14:19:13.859Z,1.42
2019-04-29T14:21:46.409Z,1.98
2019-04-29T14:24:18.921Z,1.72
2019-04-29T14:26:51.471Z,1.60
2019-04-29T14:29:28.414Z,1.45
2019-04-29T14:32:01.273Z,1.80
2019-04-29T14:34:39.401Z,1.60
2019-04-29T14:37:20.007Z,1.30
2019-04-29T14:39:46.302Z,1.60
2019-04-29T14:42:30.152Z,1.42
2019-04-29T14:45:20.587Z,1.57
2019-04-29T14:48:10.253Z,2.02
2019-04-29T14:50:44.298Z,1.90
2019-04-29T14:53:19.493Z,2.10
2019-04-29T14:55:51.811Z,2.50
2019-04-29T14:58:25.284Z,1.82
2019-04-29T15:01:16.524Z,1.40
2019-04-29T15:04:00.603Z,1.50
2019-04-29T15:06:33.150Z,2.00
2019-04-29T15:09:16.843Z,1.57
2019-04-29T15:11:53.035Z,1.72
2019-04-29T15:14:42.860Z,1.60
2019-04-29T15:17:40.306Z,1.77
2019-04-29T15:20:48.900Z,2.00
2019-04-29T15:23:29.310Z,1.95
2019-04-29T15:25:56.592Z,1.92
2019-04-29T15:28:29.410Z,2.10
2019-04-29T15:31:02.334Z,1.80
2019-04-29T15:33:36.279Z,1.72
2019-04-29T15:36:08.943Z,1.50
2019-04-29T15:38:42.064Z,1.52
2019-04-29T15:41:14.714Z,1.70
2019-04-29T15:43:48.341Z,1.57
2019-04-29T15:46:21.160Z,1.30
2019-04-29T15:48:53.792Z,1.60
2019-04-29T15:51:26.546Z,1.30
2019-04-29T15:53:59.137Z,0.90
2019-04-29T15:56:33.783Z,1.00
2019-04-29T15:59:08.881Z,1.02
2019-04-29T16:01:42.200Z,1.10
2019-04-29T16:04:21.048Z,1.10
2019-04-29T16:07:26.959Z,1.10
2019-04-29T16:10:20.527Z,1.10
2019-04-29T16:12:55.110Z,1.07
2019-04-29T16:15:27.724Z,0.93
2019-04-29T16:18:05.106Z,0.90
2019-04-29T16:20:34.609Z,1.22
2019-04-29T16:23:07.248Z,0.90
2019-04-29T16:25:40.777Z,1.05
2019-04-29T16:28:13.877Z,1.02
2019-04-29T16:30:46.417Z,0.90
2019-04-29T16:33:19.252Z,0.95
2019-04-29T16:35:51.660Z,0.93
2019-04-29T16:38:25.376Z,0.95
2019-04-29T16:41:06.252Z,0.85
2019-04-29T16:43:41.809Z,0.80
2019-04-29T16:46:23.315Z,1.10
2019-04-29T16:48:52.353Z,0.90
2019-04-29T16:51:25.075Z,1.17
2019-04-29T16:53:59.322Z,1.10
2019-04-29T16:56:31.873Z,1.10
2019-04-29T16:59:09.166Z,1.30
2019-04-29T17:01:39.245Z,1.50
2019-04-29T17:04:11.812Z,1.20
2019-04-29T17:07:10.683Z,1.30
2019-04-29T17:09:45.867Z,1.07
2019-04-29T17:12:19.583Z,1.17
2019-04-29T17:15:03.990Z,1.20
2019-04-29T17:17:29.439Z,1.27
2019-04-29T17:20:02.395Z,1.30
2019-04-29T17:22:35.608Z,1.52
2019-04-29T17:25:10.888Z,1.50
2019-04-29T17:28:01.848Z,1.15
2019-04-29T17:31:03.944Z,1.30
2019-04-29T17:34:01.911Z,1.30
2019-04-29T17:36:34.803Z,1.20
2019-04-29T17:39:10.025Z,1.20
2019-04-29T17:41:42.603Z,1.37
2019-04-29T17:44:31.918Z,1.42
2019-04-29T17:47:23.690Z,1.32
2019-04-29T17:50:14.865Z,1.15
2019-04-29T17:53:03.584Z,1.32
2019-04-29T17:55:55.492Z,1.50
2019-04-29T17:58:33.067Z,1.30
2019-04-29T18:01:25.500Z,1.47
2019-04-29T18:04:16.718Z,1.22
2019-04-29T18:07:10.286Z,1.67
2019-04-29T18:09:59.437Z,1.47
2019-04-29T18:12:37.678Z,1.07
2019-04-29T18:15:10.758Z,1.40
2019-04-29T18:17:41.189Z,1.75
2019-04-29T18:20:35.711Z,1.60
2019-04-29T18:23:25.588Z,1.60
2019-04-29T18:26:06.817Z,1.40
2019-04-29T18:28:39.493Z,1.62
2019-04-29T18:31:13.612Z,1.70
2019-04-29T18:33:46.142Z,1.75
2019-04-29T18:36:24.003Z,1.77
2019-04-29T18:38:53.262Z,1.50
2019-04-29T18:41:28.747Z,1.65
2019-04-29T18:44:03.051Z,1.45
2019-04-29T18:46:35.189Z,1.60
2019-04-29T18:49:07.950Z,1.72
2019-04-29T18:51:40.597Z,1.80
2019-04-29T18:54:13.295Z,1.55
2019-04-29T18:56:46.760Z,1.95
2019-04-29T18:59:21.317Z,1.72
2019-04-29T19:02:00.986Z,2.08
2019-04-29T19:04:40.547Z,2.10
2019-04-29T19:07:13.247Z,2.08
2019-04-29T19:09:47.194Z,2.22
2019-04-29T19:12:20.075Z,2.17
2019-04-29T19:14:53.241Z,2.00
2019-04-29T19:17:25.805Z,2.50
2019-04-29T19:19:58.409Z,2.37
2019-04-29T19:22:31.662Z,2.30
2019-04-29T19:25:08.713Z,2.65
2019-04-29T19:27:40.063Z,2.52
2019-04-29T19:30:16.261Z,2.80
2019-04-29T19:32:47.562Z,2.70
2019-04-29T19:35:20.093Z,2.52
2019-04-29T19:37:52.654Z,2.40
2019-04-29T19:40:25.837Z,2.60
2019-04-29T19:42:58.642Z,2.42
2019-04-29T19:45:32.690Z,3.00
2019-04-29T19:48:05.908Z,2.87
2019-04-29T19:50:38.750Z,2.98
2019-04-29T19:53:11.415Z,2.70
2019-04-29T19:55:45.608Z,2.80
2019-04-29T19:58:28.440Z,2.67
2019-04-29T20:00:52.867Z,2.35
2019-04-29T20:03:36.010Z,2.55
2019-04-29T20:06:08.771Z,2.30
2019-04-29T20:08:53.444Z,2.65
2019-04-29T20:11:18.304Z,2.75
2019-04-29T20:14:02.453Z,2.60
2019-04-29T20:16:57.370Z,2.12
2019-04-29T20:19:56.589Z,2.30
2019-04-29T20:22:25.616Z,2.60
2019-04-29T20:24:58.573Z,2.65
2019-04-29T20:27:32.619Z,2.60
2019-04-29T20:30:16.006Z,2.42
2019-04-29T20:32:40.334Z,2.42
2019-04-29T20:35:15.879Z,2.67
2019-04-29T20:37:55.607Z,2.70
2019-04-29T20:40:26.852Z,2.90
2019-04-29T20:42:58.114Z,2.90
2019-04-29T20:45:31.201Z,2.70
2019-04-29T20:48:06.190Z,2.90
2019-04-29T20:50:40.726Z,2.62
2019-04-29T20:53:18.019Z,2.70
2019-04-29T20:55:50.985Z,2.42
2019-04-29T20:58:31.551Z,2.60
2019-04-29T21:01:03.018Z,2.75
2019-04-29T21:03:32.815Z,2.75
2019-04-29T21:06:06.305Z,2.67
2019-04-29T21:08:38.895Z,2.47
2019-04-29T21:11:21.124Z,2.60
2019-04-29T21:14:10.576Z,2.35
2019-04-29T21:16:48.608Z,2.35
2019-04-29T21:19:21.710Z,2.58
2019-04-29T21:21:55.142Z,2.50
2019-04-29T21:24:27.872Z,2.33
2019-04-29T21:27:00.612Z,2.30
2019-04-29T21:29:33.108Z,2.22
2019-04-29T21:32:06.027Z,2.27
2019-04-29T21:34:55.260Z,1.92
2019-04-29T21:37:40.089Z,2.10
2019-04-29T21:40:35.056Z,2.00
2019-04-29T21:43:17.634Z,1.98
2019-04-29T21:45:48.577Z,2.05
2019-04-29T21:48:25.313Z,2.00
2019-04-29T21:50:55.378Z,1.85
2019-04-29T21:53:31.579Z,2.30
2019-04-29T21:56:06.267Z,1.85
2019-04-29T21:58:36.857Z,2.30
2019-04-29T22:01:09.875Z,2.20
2019-04-29T22:03:44.501Z,1.95
2019-04-29T22:06:17.238Z,2.12
2019-04-29T22:08:53.663Z,1.82
2019-04-29T22:11:25.737Z,1.75
2019-04-29T22:13:58.291Z,2.08
2019-04-29T22:16:30.849Z,2.27
2019-04-29T22:19:03.657Z,2.25
2019-04-29T22:21:36.489Z,2.35
2019-04-29T22:24:10.304Z,2.55
2019-04-29T22:26:44.941Z,2.37
2019-04-29T22:29:17.537Z,2.62
2019-04-29T22:31:50.048Z,2.62
2019-04-29T22:34:22.765Z,2.72
2019-04-29T22:36:58.356Z,2.75
2019-04-29T22:39:30.119Z,3.00
2019-04-29T22:42:27.771Z,2.62
2019-04-29T22:45:00.629Z,2.70
2019-04-29T22:47:33.295Z,2.45
2019-04-29T22:50:05.932Z,2.52
2019-04-29T22:52:38.640Z,2.50
2019-04-29T22:55:11.306Z,2.62
2019-04-29T22:57:44.918Z,2.52
2019-04-29T23:00:21.076Z,2.75
2019-04-29T23:02:53.630Z,2.70
2019-04-29T23:05:27.984Z,2.75
2019-04-29T23:08:00.432Z,2.65
2019-04-29T23:10:33.082Z,2.70
2019-04-29T23:13:06.373Z,2.80
2019-04-29T23:15:38.843Z,2.52
2019-04-29T23:18:24.103Z,2.50
2019-04-29T23:21:08.403Z,2.83
2019-04-29T23:23:45.712Z,3.08
2019-04-29T23:26:18.595Z,3.00
2019-04-29T23:28:51.149Z,2.83
2019-04-29T23:31:27.256Z,3.62
2019-04-29T23:33:58.035Z,3.08
2019-04-29T23:36:30.622Z,3.00
2019-04-29T23:39:05.496Z,3.12
2019-04-29T23:41:38.368Z,2.92
2019-04-29T23:44:17.180Z,2.85
2019-04-29T23:46:53.401Z,3.00
2019-04-29T23:49:26.161Z,3.72
2019-04-29T23:51:59.731Z,3.37
2019-04-29T23:54:39.091Z,3.10
2019-04-29T23:57:27.380Z,3.22
